Time;durP1;ratioP1;P1;durP2;ratioP2;P2;SDS_P1;SDS_P2;PMS_P1;PMS_P2;Temp;Humidity;BMP_temperature;BMP_pressure;BME280_temperature;BME280_humidity;BME280_pressure;Samples;Min_cycle;Max_cycle;Signal;HPM_P1;HPM_P2
2023/10/26 00:01:47;;;;;;;1.50;1.40;;;;;;;18.92;61.77;96501.10;103791;1281;74549;-46
2023/10/26 00:04:14;;;;;;;1.90;1.60;;;;;;;18.91;61.73;96504.35;103804;1280;65938;-47
2023/10/26 00:06:42;;;;;;;2.00;1.50;;;;;;;18.91;61.83;96506.43;103837;1278;72628;-46
2023/10/26 00:09:08;;;;;;;2.40;1.80;;;;;;;18.91;61.76;96503.34;103810;1280;61313;-46
2023/10/26 00:11:35;;;;;;;2.30;1.60;;;;;;;18.91;61.80;96494.81;103936;1277;61380;-46
2023/10/26 00:14:02;;;;;;;1.60;1.50;;;;;;;18.91;61.81;96493.73;103855;1282;74628;-46
2023/10/26 00:16:29;;;;;;;1.40;1.30;;;;;;;18.91;61.72;96493.02;104023;1280;65941;-46
2023/10/26 00:18:55;;;;;;;1.90;1.60;;;;;;;18.90;61.65;96495.97;103745;1276;72630;-46
2023/10/26 00:21:22;;;;;;;3.20;1.50;;;;;;;18.89;61.75;96497.29;103958;1280;61300;-47
2023/10/26 00:23:49;;;;;;;2.40;1.50;;;;;;;18.89;61.72;96499.84;103970;1280;61317;-46
2023/10/26 00:26:16;;;;;;;2.00;1.80;;;;;;;18.88;61.71;96502.16;104040;1280;74444;-46
2023/10/26 00:28:44;;;;;;;2.50;1.70;;;;;;;18.89;61.67;96500.69;103761;1280;65953;-46
2023/10/26 00:31:11;;;;;;;1.70;1.60;;;;;;;18.88;61.75;96491.23;103803;1277;72723;-46
2023/10/26 00:33:37;;;;;;;1.60;1.30;;;;;;;18.88;61.72;96484.65;103814;1283;61301;-47
2023/10/26 00:36:05;;;;;;;2.50;1.70;;;;;;;18.88;61.63;96478.30;103637;1277;61305;-47
2023/10/26 00:38:31;;;;;;;2.00;1.70;;;;;;;18.88;61.64;96475.11;103706;1282;74631;-47
2023/10/26 00:40:58;;;;;;;2.10;1.60;;;;;;;18.87;61.66;96466.66;103888;1282;66317;-47
2023/10/26 00:43:25;;;;;;;2.90;1.50;;;;;;;18.87;61.62;96458.21;103837;1277;72634;-47
2023/10/26 00:45:52;;;;;;;2.30;1.70;;;;;;;18.88;61.63;96461.08;103852;1291;61273;-45
2023/10/26 00:48:22;;;;;;;1.80;1.70;;;;;;;18.86;61.68;96462.48;103811;1282;61412;-46
2023/10/26 00:50:49;;;;;;;1.60;1.50;;;;;;;18.86;61.74;96464.09;103819;1280;74649;-47
2023/10/26 00:53:16;;;;;;;2.10;1.50;;;;;;;18.87;61.68;96464.33;103930;1280;66353;-46
2023/10/26 00:55:44;;;;;;;1.50;1.30;;;;;;;18.86;61.65;96469.38;103988;1277;72587;-47
2023/10/26 00:58:10;;;;;;;2.20;1.60;;;;;;;18.86;61.69;96468.67;103941;1280;61321;-45
2023/10/26 01:00:37;;;;;;;1.90;1.60;;;;;;;18.86;61.70;96460.92;103783;1282;61285;-48
2023/10/26 01:03:04;;;;;;;2.00;1.50;;;;;;;18.86;61.77;96459.45;103891;1282;74728;-46
2023/10/26 01:05:31;;;;;;;1.70;1.40;;;;;;;18.87;61.64;96459.85;104176;1280;65992;-46
2023/10/26 01:07:57;;;;;;;1.90;1.70;;;;;;;18.85;61.73;96461.61;103790;1277;72555;-46
2023/10/26 01:10:24;;;;;;;1.80;1.60;;;;;;;18.86;61.69;96462.94;103698;1280;61275;-46
2023/10/26 01:12:50;;;;;;;2.10;1.50;;;;;;;18.85;61.73;96454.73;103696;1282;61303;-46
2023/10/26 01:15:18;;;;;;;1.50;1.40;;;;;;;18.85;61.72;96450.45;103778;1280;74499;-46
2023/10/26 01:17:44;;;;;;;1.50;1.40;;;;;;;18.85;61.64;96447.04;103796;1280;65478;-46
2023/10/26 01:20:17;;;;;;;1.80;1.60;;;;;;;18.84;61.69;96442.39;104025;1276;72676;-46
2023/10/26 01:22:44;;;;;;;2.20;1.40;;;;;;;18.84;61.71;96439.83;103846;1280;61368;-46
2023/10/26 01:25:12;;;;;;;3.30;1.50;;;;;;;18.84;61.68;96449.81;103689;1280;61377;-46
2023/10/26 01:27:38;;;;;;;1.60;1.50;;;;;;;18.85;61.59;96452.92;103757;1291;74654;-45
2023/10/26 01:30:06;;;;;;;2.20;1.50;;;;;;;18.84;61.64;96454.00;103751;1280;66182;-46
2023/10/26 01:32:34;;;;;;;1.90;1.60;;;;;;;18.84;61.66;96448.81;103757;1280;72602;-46
2023/10/26 01:35:00;;;;;;;2.70;1.50;;;;;;;18.84;61.66;96448.13;103786;1280;61186;-46
2023/10/26 01:37:27;;;;;;;1.50;1.40;;;;;;;18.84;61.75;96451.76;103934;1276;61356;-45
2023/10/26 01:39:54;;;;;;;1.60;1.40;;;;;;;18.84;61.56;96450.60;103737;1280;74506;-47
2023/10/26 01:42:20;;;;;;;1.50;1.40;;;;;;;18.84;61.63;96448.27;103738;1280;66141;-47
2023/10/26 01:44:48;;;;;;;1.40;1.30;;;;;;;18.83;61.53;96445.02;103918;1277;70831;-47
2023/10/26 01:47:17;;;;;;;1.30;1.20;;;;;;;18.83;61.51;96445.41;103822;1280;61394;-47
2023/10/26 01:49:44;;;;;;;1.40;1.30;;;;;;;18.83;61.57;96446.34;103755;1277;61361;-47
2023/10/26 01:52:11;;;;;;;1.50;1.40;;;;;;;18.83;61.50;96442.38;103728;1277;74433;-48
2023/10/26 01:54:37;;;;;;;1.40;1.30;;;;;;;18.83;61.55;96438.66;103998;1277;65716;-48
2023/10/26 01:57:04;;;;;;;1.80;1.60;;;;;;;18.83;61.52;96447.73;105887;1277;71288;-46
2023/10/26 01:59:31;;;;;;;1.90;1.50;;;;;;;18.83;61.48;96449.05;107301;1280;58913;-46
2023/10/26 02:01:58;;;;;;;1.80;1.50;;;;;;;18.83;61.51;96445.34;107020;1276;59313;-48
2023/10/26 02:04:24;;;;;;;1.90;1.70;;;;;;;18.83;61.47;96446.02;103905;1280;74631;-48
2023/10/26 02:06:51;;;;;;;1.50;1.40;;;;;;;18.85;61.47;96448.05;103956;1282;65861;-47
2023/10/26 02:09:18;;;;;;;1.40;1.30;;;;;;;18.84;61.51;96447.03;103950;1277;72577;-46
2023/10/26 02:11:45;;;;;;;1.90;1.60;;;;;;;18.85;61.53;96449.52;103834;1283;61304;-46
2023/10/26 02:14:12;;;;;;;2.20;1.50;;;;;;;18.85;61.36;96451.70;103950;1276;61286;-46
2023/10/26 02:16:39;;;;;;;1.30;1.20;;;;;;;18.85;61.32;96448.98;103801;1281;74474;-46
2023/10/26 02:19:05;;;;;;;2.30;1.50;;;;;;;18.85;61.34;96446.27;103629;1282;66346;-46
2023/10/26 02:21:34;;;;;;;1.60;1.40;;;;;;;18.85;61.25;96443.63;103775;1277;72556;-46
2023/10/26 02:24:01;;;;;;;1.80;1.40;;;;;;;18.85;61.35;96439.22;103889;1280;61276;-46
2023/10/26 02:26:28;;;;;;;1.60;1.40;;;;;;;18.85;61.28;96439.29;103822;1277;61378;-46
2023/10/26 02:28:54;;;;;;;1.70;1.60;;;;;;;18.84;61.31;96442.39;103760;1280;74901;-45
2023/10/26 02:31:21;;;;;;;2.00;1.50;;;;;;;18.84;61.24;96443.08;103788;1280;65662;-48
2023/10/26 02:33:48;;;;;;;1.50;1.40;;;;;;;18.84;61.39;96442.08;103775;1277;72439;-47
2023/10/26 02:36:14;;;;;;;1.70;1.50;;;;;;;18.84;61.19;96443.39;104007;1280;61306;-48
2023/10/26 02:38:41;;;;;;;1.30;1.20;;;;;;;18.83;61.24;96437.58;103964;1282;61370;-48
2023/10/26 02:41:07;;;;;;;2.40;1.60;;;;;;;18.83;61.24;96433.86;103983;1277;61336;-47
2023/10/26 02:43:34;;;;;;;1.50;1.40;;;;;;;18.83;61.21;96436.02;103897;1280;66188;-47
2023/10/26 02:46:08;;;;;;;1.40;1.30;;;;;;;18.82;61.27;96439.74;103839;1277;72723;-47
2023/10/26 02:48:35;;;;;;;1.60;1.50;;;;;;;18.83;61.21;96434.40;104002;1277;61256;-46
2023/10/26 02:51:03;;;;;;;1.50;1.40;;;;;;;18.82;61.20;96431.60;103844;1280;61254;-46
2023/10/26 02:53:29;;;;;;;1.30;1.20;;;;;;;18.82;61.20;96431.67;103720;1277;75510;-46
2023/10/26 02:55:56;;;;;;;1.70;1.60;;;;;;;18.83;61.18;96433.39;103763;1280;66147;-46
2023/10/26 02:58:22;;;;;;;1.60;1.30;;;;;;;18.82;61.17;96433.46;103935;1277;72405;-46
2023/10/26 03:00:49;;;;;;;1.90;1.60;;;;;;;18.81;61.25;96430.05;103971;1283;61371;-46
2023/10/26 03:03:16;;;;;;;1.30;1.20;;;;;;;18.81;61.22;96426.25;103827;1276;61354;-46
2023/10/26 03:05:43;;;;;;;1.60;1.50;;;;;;;18.81;61.25;96430.83;103891;1280;74685;-46
2023/10/26 03:08:11;;;;;;;2.20;1.70;;;;;;;18.81;61.28;96434.55;104021;1280;66097;-46
2023/10/26 03:10:38;;;;;;;1.50;1.30;;;;;;;18.81;61.28;96434.23;103987;1277;73110;-46
2023/10/26 03:13:06;;;;;;;1.50;1.40;;;;;;;18.81;61.33;96436.10;103741;1276;61423;-46
2023/10/26 03:15:32;;;;;;;2.00;1.40;;;;;;;18.81;61.39;96437.25;104043;1280;61298;-46
2023/10/26 03:17:59;;;;;;;1.60;1.30;;;;;;;18.81;61.32;96439.36;103750;1276;74312;-46
2023/10/26 03:20:26;;;;;;;1.50;1.40;;;;;;;18.81;61.30;96439.81;104216;1276;65857;-46
2023/10/26 03:22:53;;;;;;;1.60;1.10;;;;;;;18.81;61.34;96437.58;103833;1278;72421;-46
2023/10/26 03:25:21;;;;;;;1.60;1.40;;;;;;;18.81;61.24;96432.60;103746;1280;61276;-47
2023/10/26 03:27:47;;;;;;;1.60;1.30;;;;;;;18.80;61.26;96435.54;103904;1277;61304;-46
2023/10/26 03:30:15;;;;;;;1.50;1.40;;;;;;;18.81;61.30;96433.15;103823;1280;74349;-46
2023/10/26 03:32:42;;;;;;;1.90;1.50;;;;;;;18.81;61.32;96430.28;103746;1277;64485;-46
2023/10/26 03:35:09;;;;;;;1.70;1.50;;;;;;;18.81;61.30;96425.16;103726;1280;72356;-47
2023/10/26 03:37:38;;;;;;;2.10;1.30;;;;;;;18.80;61.16;96426.95;103919;1280;61328;-46
2023/10/26 03:40:06;;;;;;;1.90;1.50;;;;;;;18.80;61.24;96421.29;103639;1277;61472;-47
2023/10/26 03:42:34;;;;;;;1.40;1.30;;;;;;;18.80;61.26;96416.33;104059;1277;73162;-47
2023/10/26 03:45:01;;;;;;;1.20;1.10;;;;;;;18.80;61.21;96415.09;104011;1277;66144;-46
2023/10/26 03:47:28;;;;;;;1.50;1.40;;;;;;;18.80;61.33;96417.65;103750;1277;72474;-46
2023/10/26 03:49:55;;;;;;;1.50;1.40;;;;;;;18.79;61.14;96411.23;103942;1280;61281;-46
2023/10/26 03:52:22;;;;;;;1.60;1.50;;;;;;;18.79;61.13;96409.52;103899;1279;61594;-46
2023/10/26 03:54:50;;;;;;;1.90;1.20;;;;;;;18.80;61.24;96406.65;103870;1280;74435;-46
2023/10/26 03:57:16;;;;;;;1.50;1.30;;;;;;;18.79;61.18;96406.80;103964;1280;66458;-46
2023/10/26 03:59:43;;;;;;;2.20;1.50;;;;;;;18.79;61.14;96401.77;103808;1276;72630;-46
2023/10/26 04:02:10;;;;;;;1.90;1.60;;;;;;;18.79;61.26;96404.17;103879;1280;61172;-46
2023/10/26 04:04:38;;;;;;;1.40;1.30;;;;;;;18.79;61.18;96400.98;103890;1276;61291;-46
2023/10/26 04:07:05;;;;;;;1.30;1.20;;;;;;;18.79;61.15;96403.23;104008;1276;74413;-46
2023/10/26 04:09:31;;;;;;;1.30;1.20;;;;;;;18.79;61.19;96406.88;103864;1280;66041;-46
2023/10/26 04:11:58;;;;;;;1.80;1.40;;;;;;;18.78;61.14;96407.18;104016;1277;71485;-46
2023/10/26 04:14:26;;;;;;;1.70;1.40;;;;;;;18.78;61.15;96404.77;103833;1280;61186;-47
2023/10/26 04:16:52;;;;;;;1.50;1.10;;;;;;;18.78;61.13;96408.18;103914;1277;61375;-45
2023/10/26 04:19:19;;;;;;;1.40;1.30;;;;;;;18.78;61.22;96407.55;103934;1277;75285;-46
2023/10/26 04:21:46;;;;;;;1.40;1.20;;;;;;;18.78;61.18;96406.00;103796;1280;66255;-46
2023/10/26 04:24:12;;;;;;;1.30;1.20;;;;;;;18.77;61.07;96401.52;103776;1276;73668;-46
2023/10/26 04:26:39;;;;;;;1.60;1.50;;;;;;;18.77;61.08;96403.77;104039;1280;61235;-46
2023/10/26 04:29:06;;;;;;;2.30;1.30;;;;;;;18.77;61.22;96406.86;103994;1277;61403;-46
2023/10/26 04:31:34;;;;;;;1.30;1.20;;;;;;;18.77;61.12;96402.83;104066;1279;74641;-46
2023/10/26 04:34:01;;;;;;;1.50;1.20;;;;;;;18.77;61.11;96404.15;103872;1280;65537;-46
2023/10/26 04:36:27;;;;;;;1.80;1.30;;;;;;;18.76;61.13;96405.00;103815;1277;72643;-46
2023/10/26 04:38:54;;;;;;;1.30;1.20;;;;;;;18.77;61.07;96402.21;103783;1280;61727;-48
2023/10/26 04:41:21;;;;;;;1.70;1.30;;;;;;;18.76;61.05;96404.06;105490;1277;61204;-47
2023/10/26 04:43:48;;;;;;;1.70;1.30;;;;;;;18.76;61.06;96405.86;107109;1276;73286;-46
2023/10/26 04:46:17;;;;;;;1.30;1.10;;;;;;;18.77;61.13;96408.25;107483;1276;66161;-46
2023/10/26 04:48:43;;;;;;;1.60;1.30;;;;;;;18.78;61.09;96408.80;104080;1277;71499;-47
2023/10/26 04:51:10;;;;;;;1.60;1.30;;;;;;;18.78;61.02;96406.87;103839;1280;61274;-46
2023/10/26 04:53:37;;;;;;;1.90;1.20;;;;;;;18.79;60.95;96407.19;103911;1276;61291;-47
2023/10/26 04:56:04;;;;;;;2.00;1.30;;;;;;;18.80;60.94;96414.00;103939;1277;75127;-47
2023/10/26 04:58:31;;;;;;;1.20;1.10;;;;;;;18.80;60.87;96409.36;103850;1276;65988;-46
2023/10/26 05:00:59;;;;;;;1.40;1.30;;;;;;;18.80;60.90;96411.68;103753;1277;72694;-47
2023/10/26 05:03:26;;;;;;;1.40;1.30;;;;;;;18.80;60.93;96418.42;103746;1280;61285;-45
2023/10/26 05:05:53;;;;;;;1.20;1.10;;;;;;;18.80;60.86;96421.29;103860;1280;61285;-47
2023/10/26 05:08:20;;;;;;;1.50;1.40;;;;;;;18.80;60.94;96423.08;103848;1277;75067;-47
2023/10/26 05:10:47;;;;;;;1.40;1.30;;;;;;;18.80;60.91;96422.77;104019;1280;65845;-46
2023/10/26 05:13:13;;;;;;;1.50;1.20;;;;;;;18.80;60.94;96416.41;103936;1277;73775;-45
2023/10/26 05:15:42;;;;;;;1.90;1.40;;;;;;;18.80;60.91;96415.39;104006;1277;61373;-43
2023/10/26 05:18:09;;;;;;;1.40;1.20;;;;;;;18.80;60.97;96418.42;103731;1277;61226;-47
2023/10/26 05:20:37;;;;;;;1.60;1.40;;;;;;;18.79;61.12;96431.36;105707;1276;74351;-44
2023/10/26 05:23:05;;;;;;;1.60;1.30;;;;;;;18.79;61.16;96429.20;103823;1283;66186;-45
2023/10/26 05:25:32;;;;;;;2.10;1.50;;;;;;;18.79;61.19;96433.84;104259;1276;73019;-47
2023/10/26 05:27:59;;;;;;;1.60;1.30;;;;;;;18.80;61.23;96428.89;103723;1282;61176;-45
2023/10/26 05:30:26;;;;;;;1.50;1.40;;;;;;;18.80;61.27;96431.05;104352;1277;61351;-45
2023/10/26 05:32:53;;;;;;;4.60;1.20;;;;;;;18.81;61.33;96437.48;103757;1278;74613;-47
2023/10/26 05:35:20;;;;;;;1.50;1.20;;;;;;;18.80;61.80;96434.77;103944;1280;67390;-47
2023/10/26 05:37:46;;;;;;;3.40;1.50;;;;;;;18.81;62.13;96434.94;103868;1276;73047;-42
2023/10/26 05:40:13;;;;;;;1.90;1.50;;;;;;;18.84;62.46;96438.74;103984;1280;61285;-42
2023/10/26 05:42:40;;;;;;;2.40;1.70;;;;;;;18.89;62.54;96439.45;103884;1277;61390;-40
2023/10/26 05:45:07;;;;;;;4.10;1.80;;;;;;;18.93;62.94;96440.80;103899;1278;74592;-41
2023/10/26 05:47:34;;;;;;;1.90;1.60;;;;;;;18.98;63.25;96438.89;103767;1283;65642;-43
2023/10/26 05:50:01;;;;;;;1.90;1.40;;;;;;;19.02;63.50;96438.83;103935;1278;72536;-42
2023/10/26 05:52:28;;;;;;;1.70;1.40;;;;;;;19.06;63.48;96435.98;103948;1280;61170;-43
2023/10/26 05:54:54;;;;;;;3.70;1.50;;;;;;;19.11;63.66;96434.37;103973;1277;61297;-44
2023/10/26 05:57:21;;;;;;;2.20;1.80;;;;;;;19.15;63.79;96431.35;103908;1277;74978;-41
2023/10/26 05:59:48;;;;;;;3.60;1.70;;;;;;;19.19;63.78;96428.89;103916;1280;65151;-40
2023/10/26 06:02:15;;;;;;;3.30;1.70;;;;;;;19.23;63.91;96429.60;103795;1277;73198;-41
2023/10/26 06:04:42;;;;;;;2.70;1.60;;;;;;;19.26;63.94;96429.67;103847;1277;61161;-42
2023/10/26 06:07:09;;;;;;;2.70;1.60;;;;;;;19.28;64.07;96425.73;104007;1277;61347;-42
2023/10/26 06:09:35;;;;;;;1.70;1.60;;;;;;;19.29;64.20;96426.05;103934;1278;74352;-42
2023/10/26 06:12:02;;;;;;;2.30;1.40;;;;;;;19.30;64.08;96425.50;103907;1280;67226;-45
2023/10/26 06:14:30;;;;;;;2.10;1.40;;;;;;;19.31;64.18;96432.02;104034;1280;71697;-44
2023/10/26 06:16:56;;;;;;;3.50;1.50;;;;;;;19.32;64.10;96436.20;103804;1283;61310;-43
2023/10/26 06:19:23;;;;;;;2.00;1.60;;;;;;;19.32;64.16;96435.59;103903;1278;61259;-43
2023/10/26 06:21:50;;;;;;;3.90;1.50;;;;;;;19.34;64.15;96437.07;103944;1280;74558;-44
2023/10/26 06:24:17;;;;;;;4.60;1.50;;;;;;;19.36;64.14;96435.63;103867;1280;65712;-43
2023/10/26 06:26:43;;;;;;;2.00;1.60;;;;;;;19.38;64.16;96429.91;103822;1276;72696;-42
2023/10/26 06:29:10;;;;;;;2.20;1.60;;;;;;;19.42;64.15;96436.59;103708;1280;61272;-42
2023/10/26 06:31:37;;;;;;;2.30;1.50;;;;;;;19.44;64.21;96433.87;103769;1276;61297;-44
2023/10/26 06:34:03;;;;;;;6.00;1.60;;;;;;;19.46;64.26;96437.52;103711;1280;74757;-44
2023/10/26 06:36:30;;;;;;;3.50;1.90;;;;;;;19.48;64.23;96441.25;103508;1282;67089;-44
2023/10/26 06:38:59;;;;;;;1.50;1.30;;;;;;;19.52;64.17;96441.19;104026;1277;72697;-39
2023/10/26 06:41:27;;;;;;;4.00;1.50;;;;;;;19.55;64.37;96437.39;103917;1277;61582;-42
2023/10/26 06:43:55;;;;;;;3.40;1.70;;;;;;;19.59;64.64;96433.13;103570;1277;61403;-39
2023/10/26 06:46:22;;;;;;;2.70;1.90;;;;;;;19.62;64.79;96430.41;103384;1280;74515;-40
2023/10/26 06:48:49;;;;;;;3.60;1.70;;;;;;;19.65;64.78;96427.64;103327;1282;67360;-40
2023/10/26 06:51:18;;;;;;;6.30;1.60;;;;;;;19.68;64.85;96433.22;103605;1278;73087;-43
2023/10/26 06:53:45;;;;;;;2.30;1.40;;;;;;;19.72;65.00;96428.49;103385;1280;61203;-43
2023/10/26 06:56:12;;;;;;;3.50;1.50;;;;;;;19.78;65.12;96428.48;103645;1277;61357;-39
2023/10/26 06:58:39;;;;;;;4.30;1.80;;;;;;;19.85;65.35;96431.99;103441;1278;74462;-37
2023/10/26 07:01:07;;;;;;;4.10;1.60;;;;;;;19.91;65.24;96430.52;104248;1276;66615;-40
2023/10/26 07:03:48;;;;;;;2.40;1.50;;;;;;;19.97;65.22;96427.50;103703;1277;72441;-40
2023/10/26 07:06:15;;;;;;;2.60;1.80;;;;;;;20.03;65.07;96427.74;103632;1276;61386;-41
2023/10/26 07:08:43;;;;;;;4.70;1.60;;;;;;;20.06;65.00;96427.65;103754;1278;61377;-37
2023/10/26 07:11:09;;;;;;;4.90;1.80;;;;;;;20.08;64.88;96428.44;103687;1280;74502;-43
2023/10/26 07:13:36;;;;;;;2.60;1.70;;;;;;;20.11;64.85;96426.17;103499;1281;66170;-41
2023/10/26 07:16:04;;;;;;;2.20;1.80;;;;;;;20.14;64.65;96430.52;103746;1277;72673;-44
2023/10/26 07:18:31;;;;;;;2.30;1.60;;;;;;;20.17;64.49;96435.73;103701;1280;61469;-42
2023/10/26 07:20:58;;;;;;;3.60;1.80;;;;;;;20.18;64.50;96440.70;103516;1277;61368;-41
2023/10/26 07:23:25;;;;;;;3.00;1.80;;;;;;;20.20;64.52;96445.20;103897;1279;74952;-44
2023/10/26 07:25:52;;;;;;;2.30;1.70;;;;;;;20.21;64.51;96447.33;104191;1276;64916;-43
2023/10/26 07:28:19;;;;;;;2.90;1.60;;;;;;;20.24;64.72;96445.23;105464;1277;72549;-41
2023/10/26 07:30:50;;;;;;;2.80;1.50;;;;;;;20.25;64.84;96443.84;106419;1276;60176;-41
2023/10/26 07:33:19;;;;;;;4.80;1.90;;;;;;;20.27;64.78;96440.02;104574;1277;61910;-40
2023/10/26 07:35:50;;;;;;;5.40;1.40;;;;;;;20.27;64.69;96442.04;104187;1277;73311;-43
2023/10/26 07:38:17;;;;;;;2.00;1.60;;;;;;;20.28;64.53;96436.60;104255;1276;66289;-40
2023/10/26 07:41:04;;;;;;;2.50;1.60;;;;;;;20.29;64.52;96440.11;103799;1277;72509;-42
2023/10/26 07:43:31;;;;;;;7.90;1.70;;;;;;;20.28;64.38;96436.67;103809;1278;61267;-43
2023/10/26 07:45:58;;;;;;;2.10;1.40;;;;;;;20.28;64.03;96430.54;104034;1276;61905;-40
2023/10/26 07:48:25;;;;;;;5.10;1.80;;;;;;;20.28;64.15;96428.91;103678;1277;74419;-41
2023/10/26 07:50:51;;;;;;;4.90;1.80;;;;;;;20.28;64.24;96439.48;103837;1278;66065;-43
2023/10/26 07:53:18;;;;;;;4.80;1.70;;;;;;;20.28;64.41;96443.67;103676;1277;72674;-41
2023/10/26 07:55:45;;;;;;;3.00;1.80;;;;;;;20.27;64.50;96441.80;103679;1277;62996;-42
2023/10/26 07:58:12;;;;;;;4.60;1.60;;;;;;;20.28;64.38;96437.61;103767;1278;61357;-41
2023/10/26 08:00:39;;;;;;;4.00;1.70;;;;;;;20.27;64.28;96435.21;103814;1276;76062;-38
2023/10/26 08:03:06;;;;;;;3.00;1.80;;;;;;;20.27;64.25;96426.05;103532;1277;67121;-39
2023/10/26 08:05:34;;;;;;;1.80;1.50;;;;;;;20.27;64.35;96422.64;103438;1277;73792;-38
2023/10/26 08:08:01;;;;;;;8.50;2.00;;;;;;;20.27;64.40;96425.35;103725;1280;61378;-43
2023/10/26 08:10:28;;;;;;;5.40;2.00;;;;;;;20.28;64.46;96426.89;103634;1277;61650;-38
2023/10/26 08:12:54;;;;;;;3.40;1.70;;;;;;;20.28;64.55;96421.38;107455;1276;75016;-39
2023/10/26 08:15:21;;;;;;;3.00;1.70;;;;;;;20.29;64.56;96419.59;106297;1276;61307;-41
2023/10/26 08:18:08;;;;;;;3.10;1.50;;;;;;;20.30;64.46;96422.38;103414;1280;73476;-35
2023/10/26 08:20:35;;;;;;;7.20;2.10;;;;;;;20.31;64.35;96418.11;103202;1277;61373;-37
2023/10/26 08:23:02;;;;;;;5.10;1.90;;;;;;;20.32;64.37;96424.40;103151;1277;61269;-40
2023/10/26 08:25:36;;;;;;;3.10;1.60;;;;;;;20.32;64.45;96421.30;103280;1280;76187;-41
2023/10/26 08:28:03;;;;;;;3.50;1.80;;;;;;;20.33;64.20;96419.27;103553;1280;65139;-44
2023/10/26 08:30:30;;;;;;;7.10;2.30;;;;;;;20.35;64.22;96420.05;104055;1277;73039;-42
2023/10/26 08:32:59;;;;;;;6.50;1.80;;;;;;;20.36;63.96;96415.94;103620;1280;61473;-40
2023/10/26 08:35:26;;;;;;;4.00;1.90;;;;;;;20.38;63.95;96411.04;104026;1276;61383;-40
2023/10/26 08:37:53;;;;;;;4.30;2.10;;;;;;;20.40;64.08;96411.98;106425;1278;73268;-39
2023/10/26 08:40:20;;;;;;;4.60;2.50;;;;;;;20.41;63.58;96418.72;105301;1276;67141;-42
2023/10/26 08:42:47;;;;;;;2.90;2.00;;;;;;;20.41;63.64;96419.18;103664;1277;72922;-40
2023/10/26 08:45:24;;;;;;;3.10;2.00;;;;;;;20.43;63.64;96420.80;103493;1277;61403;-44
2023/10/26 08:47:51;;;;;;;6.50;2.30;;;;;;;20.45;63.43;96420.96;103500;1279;61268;-41
2023/10/26 08:50:20;;;;;;;5.10;2.10;;;;;;;20.47;63.37;96416.92;103341;1277;74469;-43
2023/10/26 08:52:47;;;;;;;6.00;1.70;;;;;;;20.49;63.44;96412.19;103575;1280;203486;-42
2023/10/26 08:55:15;;;;;;;3.80;2.10;;;;;;;20.50;63.32;96408.60;104691;1276;72390;-44
2023/10/26 08:57:46;;;;;;;3.60;1.80;;;;;;;20.51;63.21;96407.67;103652;1280;61202;-40
2023/10/26 09:00:14;;;;;;;2.90;1.90;;;;;;;20.52;63.06;96407.97;103681;1280;61742;-45
2023/10/26 09:02:41;;;;;;;4.20;2.00;;;;;;;20.52;63.07;96404.86;103855;1280;74725;-45
2023/10/26 09:05:10;;;;;;;5.20;1.70;;;;;;;20.51;63.11;96400.75;103628;1280;67850;-44
2023/10/26 09:07:38;;;;;;;3.00;1.90;;;;;;;20.52;63.11;96397.02;103453;1277;73491;-45
2023/10/26 09:10:06;;;;;;;4.00;2.10;;;;;;;20.52;63.09;96393.06;103830;1280;61292;-44
2023/10/26 09:12:33;;;;;;;3.30;2.10;;;;;;;20.51;62.98;96394.54;103742;1278;61378;-45
2023/10/26 09:15:00;;;;;;;6.40;2.00;;;;;;;20.51;63.03;96397.10;103859;1276;75160;-43
2023/10/26 09:17:28;;;;;;;9.70;2.40;;;;;;;20.50;63.02;96399.50;104447;1279;66164;-43
2023/10/26 09:19:55;;;;;;;6.40;2.30;;;;;;;20.50;62.96;96391.65;103830;1276;73164;-40
2023/10/26 09:22:36;;;;;;;7.40;2.40;;;;;;;20.49;62.93;96387.23;103571;1283;61384;-44
2023/10/26 09:25:10;;;;;;;5.10;2.60;;;;;;;20.48;62.94;96382.89;103672;1279;61250;-45
2023/10/26 09:27:37;;;;;;;4.70;2.50;;;;;;;20.49;63.16;96377.52;103710;1280;75462;-39
2023/10/26 09:30:05;;;;;;;4.80;2.30;;;;;;;20.49;63.32;96373.80;103769;1277;66655;-44
2023/10/26 09:32:34;;;;;;;5.00;2.20;;;;;;;20.51;63.34;96371.61;103702;1283;73858;-39
2023/10/26 09:35:03;;;;;;;2.70;2.10;;;;;;;20.51;63.30;96370.69;104014;1278;61291;-39
2023/10/26 09:37:30;;;;;;;3.90;2.10;;;;;;;20.52;63.28;96372.15;103536;1277;61661;-38
2023/10/26 09:39:57;;;;;;;5.20;2.20;;;;;;;20.54;63.43;96371.15;103584;1280;74579;-41
2023/10/26 09:42:42;;;;;;;2.90;1.90;;;;;;;20.55;63.48;96376.34;103786;1277;66158;-41
2023/10/26 09:45:09;;;;;;;3.80;2.00;;;;;;;20.56;63.39;96371.45;103793;1277;72386;-40
2023/10/26 09:47:39;;;;;;;5.10;2.00;;;;;;;20.58;63.42;96362.96;103842;1280;61952;-43
2023/10/26 09:50:08;;;;;;;6.20;2.00;;;;;;;20.58;63.41;96356.45;103237;1276;61292;-40
2023/10/26 09:52:35;;;;;;;6.90;2.10;;;;;;;20.58;63.35;96353.89;103788;1278;74685;-41
2023/10/26 09:55:03;;;;;;;5.70;2.00;;;;;;;20.58;63.64;96355.11;103664;1282;65108;-39
2023/10/26 09:57:45;;;;;;;4.50;1.80;;;;;;;20.58;63.62;96351.92;103802;1277;72451;-45
2023/10/26 10:00:13;;;;;;;4.90;2.20;;;;;;;20.60;63.67;96347.11;103596;1280;61294;-43
2023/10/26 10:02:39;;;;;;;6.80;2.30;;;;;;;20.61;63.70;96347.20;103834;1276;61364;-42
2023/10/26 10:05:07;;;;;;;4.20;2.20;;;;;;;20.61;63.85;96344.54;103842;1276;73723;-40
2023/10/26 10:07:43;;;;;;;3.80;2.00;;;;;;;20.63;63.74;96348.66;103728;1282;65441;-40
2023/10/26 10:10:11;;;;;;;5.80;2.00;;;;;;;20.64;63.91;96352.54;103899;1276;72572;-42
2023/10/26 10:12:38;;;;;;;5.10;2.20;;;;;;;20.65;63.86;96346.31;104408;1279;61928;-40
2023/10/26 10:15:08;;;;;;;4.40;2.40;;;;;;;20.66;63.90;96345.23;104923;1277;61192;-41
2023/10/26 10:17:59;;;;;;;4.40;1.90;;;;;;;20.67;63.96;96347.23;104508;1280;74767;-40
2023/10/26 10:20:26;;;;;;;5.10;2.40;;;;;;;20.68;63.77;96343.60;104696;1280;66139;-40
2023/10/26 10:22:54;;;;;;;4.40;2.20;;;;;;;20.67;63.55;96337.84;103683;1277;72593;-39
2023/10/26 10:25:23;;;;;;;3.90;2.70;;;;;;;20.67;63.57;96334.64;104455;1280;61272;-41
2023/10/26 10:27:50;;;;;;;4.50;2.50;;;;;;;20.67;63.41;96329.83;103594;1277;61284;-39
2023/10/26 10:30:23;;;;;;;4.30;2.40;;;;;;;20.68;63.61;96330.14;103777;1278;74538;-39
2023/10/26 10:32:51;;;;;;;4.30;2.30;;;;;;;20.67;63.38;96321.12;104888;1277;65107;-39
2023/10/26 10:35:21;;;;;;;5.90;2.60;;;;;;;20.66;63.44;96318.63;104436;1276;72468;-39
2023/10/26 10:38:13;;;;;;;4.10;2.30;;;;;;;20.66;63.33;96320.11;103930;1280;62081;-38
2023/10/26 10:40:40;;;;;;;3.60;2.40;;;;;;;20.66;63.30;96318.24;103765;1277;61291;-39
2023/10/26 10:43:07;;;;;;;3.50;1.90;;;;;;;20.65;63.28;96313.28;103702;1277;75679;-38
2023/10/26 10:45:34;;;;;;;4.40;2.00;;;;;;;20.65;63.01;96312.74;104146;1280;66078;-38
2023/10/26 10:48:04;;;;;;;4.10;2.10;;;;;;;20.64;63.06;96313.45;103618;1277;75661;-39
2023/10/26 10:50:31;;;;;;;4.80;2.00;;;;;;;20.63;63.06;96316.09;104129;1277;61319;-40
2023/10/26 10:52:57;;;;;;;3.80;2.40;;;;;;;20.63;62.96;96313.84;103662;1277;61374;-40
2023/10/26 10:55:24;;;;;;;2.80;2.00;;;;;;;20.62;62.87;96312.13;104164;1277;74746;-37
2023/10/26 10:58:01;;;;;;;3.90;2.30;;;;;;;20.62;63.05;96313.06;103513;1282;65327;-39
2023/10/26 11:00:45;;;;;;;3.60;2.20;;;;;;;20.62;63.17;96306.30;104204;1280;72742;-37
2023/10/26 11:03:19;;;;;;;4.00;2.20;;;;;;;20.62;63.21;96308.87;103728;1283;61322;-38
2023/10/26 11:05:45;;;;;;;4.50;2.20;;;;;;;20.61;63.21;96298.30;103766;1279;61277;-40
2023/10/26 11:08:12;;;;;;;3.30;2.00;;;;;;;20.62;63.35;96297.75;103753;1278;74642;-39
2023/10/26 11:10:39;;;;;;;4.00;2.30;;;;;;;20.63;63.47;96299.86;103615;1280;65066;-40
2023/10/26 11:13:06;;;;;;;3.60;2.40;;;;;;;20.64;63.65;96298.36;103721;1278;73895;-38
2023/10/26 11:15:34;;;;;;;2.50;2.10;;;;;;;20.66;63.66;96294.23;103936;1280;61274;-40
2023/10/26 11:18:01;;;;;;;10.80;2.60;;;;;;;20.67;63.84;96294.07;103828;1276;61224;-40
2023/10/26 11:20:39;;;;;;;3.90;2.20;;;;;;;20.68;63.81;96288.02;104109;1280;74273;-41
2023/10/26 11:23:09;;;;;;;3.10;2.20;;;;;;;20.69;64.05;96287.23;103778;1280;67499;-42
2023/10/26 11:25:37;;;;;;;5.40;2.40;;;;;;;20.71;63.90;96281.79;103780;1277;72538;-40
2023/10/26 11:28:05;;;;;;;4.60;2.40;;;;;;;20.71;63.85;96281.23;103628;1277;61387;-42